sensor_id;sensor_type;location;lat;lon;timestamp;temperature;humidity
82788;DHT22;72529;51.786;4.662;2023-12-20T00:00:48;8.45;80.82
82788;DHT22;72529;51.786;4.662;2023-12-20T00:03:13;8.46;80.67
82788;DHT22;72529;51.786;4.662;2023-12-20T00:05:39;8.39;80.64
82788;DHT22;72529;51.786;4.662;2023-12-20T00:08:06;8.34;80.83
82788;DHT22;72529;51.786;4.662;2023-12-20T00:10:32;8.34;80.89
82788;DHT22;72529;51.786;4.662;2023-12-20T00:12:57;8.34;80.69
82788;DHT22;72529;51.786;4.662;2023-12-20T00:15:22;8.29;80.94
82788;DHT22;72529;51.786;4.662;2023-12-20T00:17:48;8.32;80.89
82788;DHT22;72529;51.786;4.662;2023-12-20T00:20:13;8.36;80.61
82788;DHT22;72529;51.786;4.662;2023-12-20T00:22:39;8.39;80.78
82788;DHT22;72529;51.786;4.662;2023-12-20T00:25:04;8.34;80.90
82788;DHT22;72529;51.786;4.662;2023-12-20T00:27:30;8.36;80.69
82788;DHT22;72529;51.786;4.662;2023-12-20T00:29:55;8.42;80.31
82788;DHT22;72529;51.786;4.662;2023-12-20T00:32:20;8.44;80.58
82788;DHT22;72529;51.786;4.662;2023-12-20T00:34:46;8.45;80.85
82788;DHT22;72529;51.786;4.662;2023-12-20T00:37:11;8.48;80.80
82788;DHT22;72529;51.786;4.662;2023-12-20T00:39:37;8.52;80.49
82788;DHT22;72529;51.786;4.662;2023-12-20T00:42:02;8.52;80.16
82788;DHT22;72529;51.786;4.662;2023-12-20T00:44:28;8.49;80.61
82788;DHT22;72529;51.786;4.662;2023-12-20T00:46:53;8.48;80.54
82788;DHT22;72529;51.786;4.662;2023-12-20T00:49:18;8.49;80.36
82788;DHT22;72529;51.786;4.662;2023-12-20T00:51:44;8.44;80.49
82788;DHT22;72529;51.786;4.662;2023-12-20T00:54:09;8.39;80.61
82788;DHT22;72529;51.786;4.662;2023-12-20T00:56:35;8.32;81.01
82788;DHT22;72529;51.786;4.662;2023-12-20T00:59:00;8.38;80.86
82788;DHT22;72529;51.786;4.662;2023-12-20T01:01:26;8.31;80.84
82788;DHT22;72529;51.786;4.662;2023-12-20T01:03:51;8.29;80.88
82788;DHT22;72529;51.786;4.662;2023-12-20T01:06:17;8.29;81.21
82788;DHT22;72529;51.786;4.662;2023-12-20T01:08:42;8.25;81.43
82788;DHT22;72529;51.786;4.662;2023-12-20T01:11:07;8.26;81.25
82788;DHT22;72529;51.786;4.662;2023-12-20T01:13:33;8.29;81.15
82788;DHT22;72529;51.786;4.662;2023-12-20T01:15:58;8.28;81.05
82788;DHT22;72529;51.786;4.662;2023-12-20T01:18:24;8.28;80.93
82788;DHT22;72529;51.786;4.662;2023-12-20T01:20:49;8.26;81.06
82788;DHT22;72529;51.786;4.662;2023-12-20T01:23:15;8.28;81.16
82788;DHT22;72529;51.786;4.662;2023-12-20T01:25:40;8.24;81.39
82788;DHT22;72529;51.786;4.662;2023-12-20T01:28:05;8.28;81.37
82788;DHT22;72529;51.786;4.662;2023-12-20T01:30:31;8.28;81.23
82788;DHT22;72529;51.786;4.662;2023-12-20T01:32:56;8.25;81.37
82788;DHT22;72529;51.786;4.662;2023-12-20T01:35:22;8.24;81.59
82788;DHT22;72529;51.786;4.662;2023-12-20T01:37:47;8.28;81.57
82788;DHT22;72529;51.786;4.662;2023-12-20T01:40:12;8.28;81.59
82788;DHT22;72529;51.786;4.662;2023-12-20T01:42:38;8.28;81.74
82788;DHT22;72529;51.786;4.662;2023-12-20T01:45:04;8.29;81.64
82788;DHT22;72529;51.786;4.662;2023-12-20T01:47:30;8.32;81.83
82788;DHT22;72529;51.786;4.662;2023-12-20T01:49:56;8.34;81.62
82788;DHT22;72529;51.786;4.662;2023-12-20T01:52:23;8.42;81.04
82788;DHT22;72529;51.786;4.662;2023-12-20T01:54:49;8.44;80.83
82788;DHT22;72529;51.786;4.662;2023-12-20T01:57:15;8.49;80.46
82788;DHT22;72529;51.786;4.662;2023-12-20T01:59:41;8.59;80.16
82788;DHT22;72529;51.786;4.662;2023-12-20T02:02:07;8.63;79.84
82788;DHT22;72529;51.786;4.662;2023-12-20T02:04:33;8.66;80.47
82788;DHT22;72529;51.786;4.662;2023-12-20T02:06:59;8.76;79.72
82788;DHT22;72529;51.786;4.662;2023-12-20T02:09:25;8.79;79.41
82788;DHT22;72529;51.786;4.662;2023-12-20T02:11:51;8.81;79.72
82788;DHT22;72529;51.786;4.662;2023-12-20T02:14:16;8.80;79.85
82788;DHT22;72529;51.786;4.662;2023-12-20T02:16:42;8.77;79.99
82788;DHT22;72529;51.786;4.662;2023-12-20T02:19:13;8.77;80.43
82788;DHT22;72529;51.786;4.662;2023-12-20T02:21:39;8.80;80.54
82788;DHT22;72529;51.786;4.662;2023-12-20T02:24:05;8.77;80.59
82788;DHT22;72529;51.786;4.662;2023-12-20T02:26:33;8.73;80.68
82788;DHT22;72529;51.786;4.662;2023-12-20T02:28:59;8.75;80.85
82788;DHT22;72529;51.786;4.662;2023-12-20T02:31:24;8.79;80.90
82788;DHT22;72529;51.786;4.662;2023-12-20T02:33:50;8.80;80.72
82788;DHT22;72529;51.786;4.662;2023-12-20T02:36:15;8.83;80.66
82788;DHT22;72529;51.786;4.662;2023-12-20T02:38:40;8.87;80.31
82788;DHT22;72529;51.786;4.662;2023-12-20T02:41:06;8.86;79.75
82788;DHT22;72529;51.786;4.662;2023-12-20T02:43:31;8.87;79.97
82788;DHT22;72529;51.786;4.662;2023-12-20T02:45:57;8.80;79.86
82788;DHT22;72529;51.786;4.662;2023-12-20T02:48:22;8.93;79.92
82788;DHT22;72529;51.786;4.662;2023-12-20T02:50:48;8.94;79.73
82788;DHT22;72529;51.786;4.662;2023-12-20T02:53:14;8.93;79.78
82788;DHT22;72529;51.786;4.662;2023-12-20T02:55:40;8.91;79.87
82788;DHT22;72529;51.786;4.662;2023-12-20T02:58:05;8.93;79.73
82788;DHT22;72529;51.786;4.662;2023-12-20T03:00:31;8.87;79.89
82788;DHT22;72529;51.786;4.662;2023-12-20T03:02:56;8.89;80.14
82788;DHT22;72529;51.786;4.662;2023-12-20T03:05:21;8.93;80.33
82788;DHT22;72529;51.786;4.662;2023-12-20T03:07:47;8.86;80.25
82788;DHT22;72529;51.786;4.662;2023-12-20T03:10:12;8.90;80.41
82788;DHT22;72529;51.786;4.662;2023-12-20T03:12:38;8.89;80.48
82788;DHT22;72529;51.786;4.662;2023-12-20T03:15:03;8.89;80.42
82788;DHT22;72529;51.786;4.662;2023-12-20T03:17:29;8.89;80.55
82788;DHT22;72529;51.786;4.662;2023-12-20T03:19:54;8.97;80.28
82788;DHT22;72529;51.786;4.662;2023-12-20T03:22:20;8.87;80.76
82788;DHT22;72529;51.786;4.662;2023-12-20T03:24:45;8.87;80.88
82788;DHT22;72529;51.786;4.662;2023-12-20T03:27:11;8.93;80.75
82788;DHT22;72529;51.786;4.662;2023-12-20T03:29:36;8.99;80.32
82788;DHT22;72529;51.786;4.662;2023-12-20T03:32:01;9.00;80.02
82788;DHT22;72529;51.786;4.662;2023-12-20T03:34:27;9.01;80.27
82788;DHT22;72529;51.786;4.662;2023-12-20T03:36:54;8.97;80.14
82788;DHT22;72529;51.786;4.662;2023-12-20T03:39:19;8.93;80.24
82788;DHT22;72529;51.786;4.662;2023-12-20T03:41:45;8.96;80.58
82788;DHT22;72529;51.786;4.662;2023-12-20T03:44:10;8.93;80.35
82788;DHT22;72529;51.786;4.662;2023-12-20T03:46:36;8.99;79.87
82788;DHT22;72529;51.786;4.662;2023-12-20T03:49:01;8.93;79.83
82788;DHT22;72529;51.786;4.662;2023-12-20T03:51:27;8.90;79.40
82788;DHT22;72529;51.786;4.662;2023-12-20T03:53:52;8.84;79.38
82788;DHT22;72529;51.786;4.662;2023-12-20T03:56:18;8.79;79.57
82788;DHT22;72529;51.786;4.662;2023-12-20T03:58:43;8.75;79.14
82788;DHT22;72529;51.786;4.662;2023-12-20T04:01:09;8.76;79.21
82788;DHT22;72529;51.786;4.662;2023-12-20T04:03:36;8.66;79.41
82788;DHT22;72529;51.786;4.662;2023-12-20T04:06:01;8.63;79.69
82788;DHT22;72529;51.786;4.662;2023-12-20T04:08:27;8.55;79.74
82788;DHT22;72529;51.786;4.662;2023-12-20T04:10:52;8.56;79.75
82788;DHT22;72529;51.786;4.662;2023-12-20T04:13:18;8.53;79.55
82788;DHT22;72529;51.786;4.662;2023-12-20T04:15:43;8.49;79.46
82788;DHT22;72529;51.786;4.662;2023-12-20T04:18:09;8.46;79.60
82788;DHT22;72529;51.786;4.662;2023-12-20T04:20:34;8.44;79.62
82788;DHT22;72529;51.786;4.662;2023-12-20T04:22:59;8.42;79.41
82788;DHT22;72529;51.786;4.662;2023-12-20T04:25:25;8.49;79.56
82788;DHT22;72529;51.786;4.662;2023-12-20T04:27:50;8.50;79.42
82788;DHT22;72529;51.786;4.662;2023-12-20T04:30:15;8.49;79.91
82788;DHT22;72529;51.786;4.662;2023-12-20T04:32:41;8.55;79.85
82788;DHT22;72529;51.786;4.662;2023-12-20T04:35:06;8.56;79.51
82788;DHT22;72529;51.786;4.662;2023-12-20T04:37:33;8.50;79.69
82788;DHT22;72529;51.786;4.662;2023-12-20T04:39:59;8.49;79.74
82788;DHT22;72529;51.786;4.662;2023-12-20T04:42:24;8.44;80.03
82788;DHT22;72529;51.786;4.662;2023-12-20T04:44:49;8.50;79.94
82788;DHT22;72529;51.786;4.662;2023-12-20T04:47:15;8.39;80.15
82788;DHT22;72529;51.786;4.662;2023-12-20T04:49:40;8.41;80.34
82788;DHT22;72529;51.786;4.662;2023-12-20T04:52:06;8.35;80.47
82788;DHT22;72529;51.786;4.662;2023-12-20T04:54:31;8.34;80.58
82788;DHT22;72529;51.786;4.662;2023-12-20T04:56:57;8.34;80.46
82788;DHT22;72529;51.786;4.662;2023-12-20T04:59:22;8.32;80.54
82788;DHT22;72529;51.786;4.662;2023-12-20T05:01:47;8.28;80.70
82788;DHT22;72529;51.786;4.662;2023-12-20T05:04:13;8.29;80.71
82788;DHT22;72529;51.786;4.662;2023-12-20T05:06:38;8.28;80.73
82788;DHT22;72529;51.786;4.662;2023-12-20T05:09:04;8.26;80.56
82788;DHT22;72529;51.786;4.662;2023-12-20T05:11:29;8.29;80.37
82788;DHT22;72529;51.786;4.662;2023-12-20T05:13:56;8.21;80.56
82788;DHT22;72529;51.786;4.662;2023-12-20T05:16:21;8.15;80.32
82788;DHT22;72529;51.786;4.662;2023-12-20T05:18:48;8.22;80.23
82788;DHT22;72529;51.786;4.662;2023-12-20T05:21:15;8.18;80.19
82788;DHT22;72529;51.786;4.662;2023-12-20T05:23:40;8.15;80.20
82788;DHT22;72529;51.786;4.662;2023-12-20T05:26:05;8.15;80.37
82788;DHT22;72529;51.786;4.662;2023-12-20T05:28:31;8.14;80.26
82788;DHT22;72529;51.786;4.662;2023-12-20T05:30:57;8.16;80.07
82788;DHT22;72529;51.786;4.662;2023-12-20T05:33:23;8.15;80.28
82788;DHT22;72529;51.786;4.662;2023-12-20T05:35:48;8.14;80.02
82788;DHT22;72529;51.786;4.662;2023-12-20T05:38:13;8.21;79.94
82788;DHT22;72529;51.786;4.662;2023-12-20T05:40:40;8.24;79.60
82788;DHT22;72529;51.786;4.662;2023-12-20T05:43:05;8.20;79.71
82788;DHT22;72529;51.786;4.662;2023-12-20T05:45:30;8.21;79.70
82788;DHT22;72529;51.786;4.662;2023-12-20T05:47:56;8.22;79.82
82788;DHT22;72529;51.786;4.662;2023-12-20T05:50:21;8.24;79.83
82788;DHT22;72529;51.786;4.662;2023-12-20T05:52:47;8.32;79.69
82788;DHT22;72529;51.786;4.662;2023-12-20T05:55:12;8.25;80.07
82788;DHT22;72529;51.786;4.662;2023-12-20T05:57:37;8.21;80.22
82788;DHT22;72529;51.786;4.662;2023-12-20T06:00:03;8.29;80.21
82788;DHT22;72529;51.786;4.662;2023-12-20T06:02:29;8.26;80.31
82788;DHT22;72529;51.786;4.662;2023-12-20T06:04:54;8.22;80.51
82788;DHT22;72529;51.786;4.662;2023-12-20T06:07:20;8.26;80.46
82788;DHT22;72529;51.786;4.662;2023-12-20T06:09:46;8.29;80.46
82788;DHT22;72529;51.786;4.662;2023-12-20T06:12:11;8.25;80.61
82788;DHT22;72529;51.786;4.662;2023-12-20T06:14:37;8.29;80.50
82788;DHT22;72529;51.786;4.662;2023-12-20T06:17:02;8.26;80.75
82788;DHT22;72529;51.786;4.662;2023-12-20T06:19:28;8.29;80.53
82788;DHT22;72529;51.786;4.662;2023-12-20T06:21:53;8.28;80.53
82788;DHT22;72529;51.786;4.662;2023-12-20T06:24:19;8.32;80.28
82788;DHT22;72529;51.786;4.662;2023-12-20T06:26:45;8.31;80.25
82788;DHT22;72529;51.786;4.662;2023-12-20T06:29:10;8.36;80.27
82788;DHT22;72529;51.786;4.662;2023-12-20T06:31:36;8.38;80.08
82788;DHT22;72529;51.786;4.662;2023-12-20T06:34:01;8.45;80.14
82788;DHT22;72529;51.786;4.662;2023-12-20T06:36:27;8.45;80.06
82788;DHT22;72529;51.786;4.662;2023-12-20T06:38:52;8.53;80.01
82788;DHT22;72529;51.786;4.662;2023-12-20T06:41:18;8.57;79.89
82788;DHT22;72529;51.786;4.662;2023-12-20T06:43:44;8.65;80.00
82788;DHT22;72529;51.786;4.662;2023-12-20T06:46:09;8.67;79.75
82788;DHT22;72529;51.786;4.662;2023-12-20T06:48:35;8.70;79.95
82788;DHT22;72529;51.786;4.662;2023-12-20T06:51:01;8.66;79.75
82788;DHT22;72529;51.786;4.662;2023-12-20T06:53:29;8.63;79.82
82788;DHT22;72529;51.786;4.662;2023-12-20T06:55:55;8.60;80.14
82788;DHT22;72529;51.786;4.662;2023-12-20T06:58:21;8.73;79.68
82788;DHT22;72529;51.786;4.662;2023-12-20T07:00:47;8.67;79.72
82788;DHT22;72529;51.786;4.662;2023-12-20T07:03:12;8.69;79.49
82788;DHT22;72529;51.786;4.662;2023-12-20T07:05:38;8.75;79.36
82788;DHT22;72529;51.786;4.662;2023-12-20T07:08:04;8.80;79.34
82788;DHT22;72529;51.786;4.662;2023-12-20T07:10:30;8.84;79.49
82788;DHT22;72529;51.786;4.662;2023-12-20T07:12:55;8.90;79.20
82788;DHT22;72529;51.786;4.662;2023-12-20T07:15:22;8.89;79.18
82788;DHT22;72529;51.786;4.662;2023-12-20T07:17:47;8.86;79.30
82788;DHT22;72529;51.786;4.662;2023-12-20T07:20:12;8.83;79.39
82788;DHT22;72529;51.786;4.662;2023-12-20T07:22:38;8.84;79.26
82788;DHT22;72529;51.786;4.662;2023-12-20T07:25:04;8.81;79.26
82788;DHT22;72529;51.786;4.662;2023-12-20T07:27:30;8.76;79.47
82788;DHT22;72529;51.786;4.662;2023-12-20T07:29:55;8.79;79.51
82788;DHT22;72529;51.786;4.662;2023-12-20T07:32:21;8.67;79.66
82788;DHT22;72529;51.786;4.662;2023-12-20T07:34:46;8.59;80.03
82788;DHT22;72529;51.786;4.662;2023-12-20T07:37:11;8.59;80.26
82788;DHT22;72529;51.786;4.662;2023-12-20T07:39:38;8.63;80.39
82788;DHT22;72529;51.786;4.662;2023-12-20T07:42:05;8.57;80.16
82788;DHT22;72529;51.786;4.662;2023-12-20T07:44:30;8.53;80.13
82788;DHT22;72529;51.786;4.662;2023-12-20T07:46:56;8.49;80.22
82788;DHT22;72529;51.786;4.662;2023-12-20T07:49:23;8.48;80.25
82788;DHT22;72529;51.786;4.662;2023-12-20T07:51:49;8.42;80.54
82788;DHT22;72529;51.786;4.662;2023-12-20T07:54:15;8.42;80.61
82788;DHT22;72529;51.786;4.662;2023-12-20T07:56:41;8.38;80.70
82788;DHT22;72529;51.786;4.662;2023-12-20T07:59:06;8.38;80.85
82788;DHT22;72529;51.786;4.662;2023-12-20T08:01:31;8.44;80.68
82788;DHT22;72529;51.786;4.662;2023-12-20T08:03:57;8.42;80.81
82788;DHT22;72529;51.786;4.662;2023-12-20T08:06:22;8.46;80.55
82788;DHT22;72529;51.786;4.662;2023-12-20T08:08:48;8.48;80.61
82788;DHT22;72529;51.786;4.662;2023-12-20T08:11:14;8.50;80.65
82788;DHT22;72529;51.786;4.662;2023-12-20T08:13:39;8.53;80.77
82788;DHT22;72529;51.786;4.662;2023-12-20T08:16:05;8.56;80.86
82788;DHT22;72529;51.786;4.662;2023-12-20T08:18:30;8.65;80.92
82788;DHT22;72529;51.786;4.662;2023-12-20T08:20:56;8.69;80.83
82788;DHT22;72529;51.786;4.662;2023-12-20T08:23:21;8.69;80.98
82788;DHT22;72529;51.786;4.662;2023-12-20T08:25:47;8.75;80.54
82788;DHT22;72529;51.786;4.662;2023-12-20T08:28:13;8.83;80.60
82788;DHT22;72529;51.786;4.662;2023-12-20T08:30:39;8.87;80.26
82788;DHT22;72529;51.786;4.662;2023-12-20T08:33:04;8.90;80.64
82788;DHT22;72529;51.786;4.662;2023-12-20T08:35:30;8.94;80.29
82788;DHT22;72529;51.786;4.662;2023-12-20T08:37:56;8.94;80.37
82788;DHT22;72529;51.786;4.662;2023-12-20T08:40:21;8.94;80.41
82788;DHT22;72529;51.786;4.662;2023-12-20T08:42:46;8.94;80.61
82788;DHT22;72529;51.786;4.662;2023-12-20T08:45:12;8.96;80.62
82788;DHT22;72529;51.786;4.662;2023-12-20T08:47:37;9.01;80.46
82788;DHT22;72529;51.786;4.662;2023-12-20T08:50:03;9.13;80.53
82788;DHT22;72529;51.786;4.662;2023-12-20T08:52:28;9.11;80.49
82788;DHT22;72529;51.786;4.662;2023-12-20T08:54:54;9.23;79.94
82788;DHT22;72529;51.786;4.662;2023-12-20T08:57:20;9.23;80.05
82788;DHT22;72529;51.786;4.662;2023-12-20T08:59:47;9.23;80.03
82788;DHT22;72529;51.786;4.662;2023-12-20T09:02:13;9.30;79.88
82788;DHT22;72529;51.786;4.662;2023-12-20T09:04:38;9.27;80.04
82788;DHT22;72529;51.786;4.662;2023-12-20T09:07:04;9.30;79.78
82788;DHT22;72529;51.786;4.662;2023-12-20T09:09:29;9.32;79.93
82788;DHT22;72529;51.786;4.662;2023-12-20T09:11:57;9.37;80.36
82788;DHT22;72529;51.786;4.662;2023-12-20T09:14:23;9.40;80.30
82788;DHT22;72529;51.786;4.662;2023-12-20T09:16:48;9.30;80.61
82788;DHT22;72529;51.786;4.662;2023-12-20T09:19:16;9.34;80.47
82788;DHT22;72529;51.786;4.662;2023-12-20T09:21:42;9.32;80.58
82788;DHT22;72529;51.786;4.662;2023-12-20T09:24:07;9.35;80.77
82788;DHT22;72529;51.786;4.662;2023-12-20T09:26:34;9.44;80.33
82788;DHT22;72529;51.786;4.662;2023-12-20T09:28:59;9.48;80.17
82788;DHT22;72529;51.786;4.662;2023-12-20T09:31:25;9.55;80.10
82788;DHT22;72529;51.786;4.662;2023-12-20T09:33:50;9.62;80.13
82788;DHT22;72529;51.786;4.662;2023-12-20T09:36:16;9.63;79.87
82788;DHT22;72529;51.786;4.662;2023-12-20T09:38:41;9.68;79.57
82788;DHT22;72529;51.786;4.662;2023-12-20T09:41:07;9.65;79.50
82788;DHT22;72529;51.786;4.662;2023-12-20T09:43:37;9.63;79.85
82788;DHT22;72529;51.786;4.662;2023-12-20T09:46:05;9.68;79.57
82788;DHT22;72529;51.786;4.662;2023-12-20T09:48:31;9.70;79.44
82788;DHT22;72529;51.786;4.662;2023-12-20T09:50:56;9.75;79.36
82788;DHT22;72529;51.786;4.662;2023-12-20T09:53:22;9.72;79.20
82788;DHT22;72529;51.786;4.662;2023-12-20T09:55:57;9.79;79.26
82788;DHT22;72529;51.786;4.662;2023-12-20T09:58:23;9.81;79.22
82788;DHT22;72529;51.786;4.662;2023-12-20T10:00:48;9.79;79.23
82788;DHT22;72529;51.786;4.662;2023-12-20T10:03:15;9.79;79.54
82788;DHT22;72529;51.786;4.662;2023-12-20T10:05:43;9.82;79.42
82788;DHT22;72529;51.786;4.662;2023-12-20T10:08:08;9.79;79.41
82788;DHT22;72529;51.786;4.662;2023-12-20T10:10:33;9.81;79.36
82788;DHT22;72529;51.786;4.662;2023-12-20T10:13:03;9.93;79.60
82788;DHT22;72529;51.786;4.662;2023-12-20T10:15:30;10.02;79.46
82788;DHT22;72529;51.786;4.662;2023-12-20T10:17:56;10.03;79.15
82788;DHT22;72529;51.786;4.662;2023-12-20T10:20:22;9.99;79.03
82788;DHT22;72529;51.786;4.662;2023-12-20T10:22:48;10.03;79.10
82788;DHT22;72529;51.786;4.662;2023-12-20T10:25:14;10.03;79.35
82788;DHT22;72529;51.786;4.662;2023-12-20T10:27:39;10.06;79.22
82788;DHT22;72529;51.786;4.662;2023-12-20T10:30:05;10.05;78.92
82788;DHT22;72529;51.786;4.662;2023-12-20T10:32:31;9.98;79.14
82788;DHT22;72529;51.786;4.662;2023-12-20T10:34:56;10.02;79.36
82788;DHT22;72529;51.786;4.662;2023-12-20T10:37:22;10.09;79.23
82788;DHT22;72529;51.786;4.662;2023-12-20T10:39:53;10.06;79.31
82788;DHT22;72529;51.786;4.662;2023-12-20T10:42:22;10.08;79.73
82788;DHT22;72529;51.786;4.662;2023-12-20T10:44:49;10.06;79.59
82788;DHT22;72529;51.786;4.662;2023-12-20T10:47:16;10.10;79.47
82788;DHT22;72529;51.786;4.662;2023-12-20T10:49:43;10.17;79.57
82788;DHT22;72529;51.786;4.662;2023-12-20T10:52:11;10.22;79.38
82788;DHT22;72529;51.786;4.662;2023-12-20T10:54:39;10.19;79.45
82788;DHT22;72529;51.786;4.662;2023-12-20T10:57:06;10.23;79.93
82788;DHT22;72529;51.786;4.662;2023-12-20T10:59:34;10.23;79.43
82788;DHT22;72529;51.786;4.662;2023-12-20T11:02:03;10.26;79.58
82788;DHT22;72529;51.786;4.662;2023-12-20T11:08:12;10.26;79.42
82788;DHT22;72529;51.786;4.662;2023-12-20T11:10:50;10.29;79.42
82788;DHT22;72529;51.786;4.662;2023-12-20T11:13:22;10.20;79.44
82788;DHT22;72529;51.786;4.662;2023-12-20T11:15:49;10.22;79.51
82788;DHT22;72529;51.786;4.662;2023-12-20T11:18:15;10.30;79.53
82788;DHT22;72529;51.786;4.662;2023-12-20T11:20:41;10.32;79.31
82788;DHT22;72529;51.786;4.662;2023-12-20T11:23:08;10.45;79.27
82788;DHT22;72529;51.786;4.662;2023-12-20T11:25:54;10.49;78.87
82788;DHT22;72529;51.786;4.662;2023-12-20T11:28:24;10.55;79.00
82788;DHT22;72529;51.786;4.662;2023-12-20T11:30:52;10.49;78.83
82788;DHT22;72529;51.786;4.662;2023-12-20T11:33:22;10.42;78.90
82788;DHT22;72529;51.786;4.662;2023-12-20T11:35:48;10.42;78.92
82788;DHT22;72529;51.786;4.662;2023-12-20T11:38:14;10.52;78.66
82788;DHT22;72529;51.786;4.662;2023-12-20T11:40:42;10.55;78.55
82788;DHT22;72529;51.786;4.662;2023-12-20T11:43:07;10.59;78.97
82788;DHT22;72529;51.786;4.662;2023-12-20T11:45:33;10.53;78.33
82788;DHT22;72529;51.786;4.662;2023-12-20T11:48:01;10.53;78.09
82788;DHT22;72529;51.786;4.662;2023-12-20T11:50:27;10.61;78.25
82788;DHT22;72529;51.786;4.662;2023-12-20T11:52:55;10.70;78.29
82788;DHT22;72529;51.786;4.662;2023-12-20T11:55:21;10.76;78.14
82788;DHT22;72529;51.786;4.662;2023-12-20T11:57:47;10.78;77.81
82788;DHT22;72529;51.786;4.662;2023-12-20T12:00:13;10.68;77.80
82788;DHT22;72529;51.786;4.662;2023-12-20T12:02:39;10.71;78.21
82788;DHT22;72529;51.786;4.662;2023-12-20T12:05:05;10.61;78.19
82788;DHT22;72529;51.786;4.662;2023-12-20T12:07:31;10.70;78.21
82788;DHT22;72529;51.786;4.662;2023-12-20T12:09:57;10.64;78.55
82788;DHT22;72529;51.786;4.662;2023-12-20T12:12:22;10.59;78.45
82788;DHT22;72529;51.786;4.662;2023-12-20T12:14:48;10.68;78.65
82788;DHT22;72529;51.786;4.662;2023-12-20T12:17:15;10.68;78.31
82788;DHT22;72529;51.786;4.662;2023-12-20T12:19:42;10.74;78.42
82788;DHT22;72529;51.786;4.662;2023-12-20T12:22:13;10.71;78.50
82788;DHT22;72529;51.786;4.662;2023-12-20T12:24:43;10.81;78.46
82788;DHT22;72529;51.786;4.662;2023-12-20T12:27:10;10.90;78.64
82788;DHT22;72529;51.786;4.662;2023-12-20T12:29:36;10.87;78.22
82788;DHT22;72529;51.786;4.662;2023-12-20T12:32:06;10.80;78.32
82788;DHT22;72529;51.786;4.662;2023-12-20T12:34:32;10.80;78.26
82788;DHT22;72529;51.786;4.662;2023-12-20T12:36:58;10.74;78.28
82788;DHT22;72529;51.786;4.662;2023-12-20T12:39:24;10.76;78.47
82788;DHT22;72529;51.786;4.662;2023-12-20T12:41:53;10.64;78.52
82788;DHT22;72529;51.786;4.662;2023-12-20T12:44:19;10.60;78.75
82788;DHT22;72529;51.786;4.662;2023-12-20T12:46:46;10.61;78.47
82788;DHT22;72529;51.786;4.662;2023-12-20T12:49:11;10.61;78.63
82788;DHT22;72529;51.786;4.662;2023-12-20T12:51:37;10.66;78.43
82788;DHT22;72529;51.786;4.662;2023-12-20T12:54:02;10.68;78.45
82788;DHT22;72529;51.786;4.662;2023-12-20T12:56:29;10.64;78.54
82788;DHT22;72529;51.786;4.662;2023-12-20T12:58:54;10.71;78.89
82788;DHT22;72529;51.786;4.662;2023-12-20T13:01:20;10.53;78.92
82788;DHT22;72529;51.786;4.662;2023-12-20T13:03:45;10.57;79.21
82788;DHT22;72529;51.786;4.662;2023-12-20T13:06:12;10.59;78.97
82788;DHT22;72529;51.786;4.662;2023-12-20T13:08:37;10.55;79.05
82788;DHT22;72529;51.786;4.662;2023-12-20T13:11:03;10.60;79.10
82788;DHT22;72529;51.786;4.662;2023-12-20T13:13:30;10.49;78.95
82788;DHT22;72529;51.786;4.662;2023-12-20T13:15:56;10.47;79.22
82788;DHT22;72529;51.786;4.662;2023-12-20T13:18:22;10.35;79.48
82788;DHT22;72529;51.786;4.662;2023-12-20T13:20:48;10.43;79.66
82788;DHT22;72529;51.786;4.662;2023-12-20T13:23:13;10.50;79.45
82788;DHT22;72529;51.786;4.662;2023-12-20T13:25:39;10.59;79.26
82788;DHT22;72529;51.786;4.662;2023-12-20T13:28:05;10.52;79.21
82788;DHT22;72529;51.786;4.662;2023-12-20T13:30:31;10.53;79.49
82788;DHT22;72529;51.786;4.662;2023-12-20T13:32:56;10.52;79.25
82788;DHT22;72529;51.786;4.662;2023-12-20T13:35:21;10.50;79.18
82788;DHT22;72529;51.786;4.662;2023-12-20T13:37:47;10.50;79.22
82788;DHT22;72529;51.786;4.662;2023-12-20T13:40:12;10.45;79.31
82788;DHT22;72529;51.786;4.662;2023-12-20T13:42:39;10.46;79.38
82788;DHT22;72529;51.786;4.662;2023-12-20T13:45:05;10.47;79.19
82788;DHT22;72529;51.786;4.662;2023-12-20T13:47:31;10.50;79.04
82788;DHT22;72529;51.786;4.662;2023-12-20T13:49:57;10.50;78.88
82788;DHT22;72529;51.786;4.662;2023-12-20T13:52:22;10.40;78.93
82788;DHT22;72529;51.786;4.662;2023-12-20T13:54:48;10.46;79.10
82788;DHT22;72529;51.786;4.662;2023-12-20T13:57:13;10.47;78.86
82788;DHT22;72529;51.786;4.662;2023-12-20T13:59:38;10.50;79.03
82788;DHT22;72529;51.786;4.662;2023-12-20T14:02:04;10.43;78.82
82788;DHT22;72529;51.786;4.662;2023-12-20T14:04:30;10.42;79.01
82788;DHT22;72529;51.786;4.662;2023-12-20T14:06:56;10.45;79.08
82788;DHT22;72529;51.786;4.662;2023-12-20T14:09:22;10.37;79.04
82788;DHT22;72529;51.786;4.662;2023-12-20T14:11:47;10.40;79.33
82788;DHT22;72529;51.786;4.662;2023-12-20T14:14:13;10.29;79.68
82788;DHT22;72529;51.786;4.662;2023-12-20T14:16:38;10.29;79.79
82788;DHT22;72529;51.786;4.662;2023-12-20T14:19:04;10.25;79.64
82788;DHT22;72529;51.786;4.662;2023-12-20T14:21:33;10.17;79.67
82788;DHT22;72529;51.786;4.662;2023-12-20T14:23:58;10.20;79.86
82788;DHT22;72529;51.786;4.662;2023-12-20T14:26:24;10.26;79.57
82788;DHT22;72529;51.786;4.662;2023-12-20T14:28:49;10.26;79.20
82788;DHT22;72529;51.786;4.662;2023-12-20T14:31:15;10.19;79.72
82788;DHT22;72529;51.786;4.662;2023-12-20T14:33:40;10.22;79.69
82788;DHT22;72529;51.786;4.662;2023-12-20T14:36:07;10.25;79.55
82788;DHT22;72529;51.786;4.662;2023-12-20T14:38:33;10.25;79.71
82788;DHT22;72529;51.786;4.662;2023-12-20T14:40:59;10.30;79.56
82788;DHT22;72529;51.786;4.662;2023-12-20T14:43:25;10.28;79.42
82788;DHT22;72529;51.786;4.662;2023-12-20T14:45:51;10.32;79.42
82788;DHT22;72529;51.786;4.662;2023-12-20T14:48:17;10.36;79.59
82788;DHT22;72529;51.786;4.662;2023-12-20T14:50:44;10.35;79.47
82788;DHT22;72529;51.786;4.662;2023-12-20T14:53:09;10.30;79.64
82788;DHT22;72529;51.786;4.662;2023-12-20T14:55:35;10.28;79.67
82788;DHT22;72529;51.786;4.662;2023-12-20T14:58:01;10.35;79.71
82788;DHT22;72529;51.786;4.662;2023-12-20T15:00:27;10.19;79.76
82788;DHT22;72529;51.786;4.662;2023-12-20T15:02:53;10.29;79.98
82788;DHT22;72529;51.786;4.662;2023-12-20T15:05:21;10.28;80.15
82788;DHT22;72529;51.786;4.662;2023-12-20T15:07:48;10.29;80.19
82788;DHT22;72529;51.786;4.662;2023-12-20T15:10:14;10.28;80.40
82788;DHT22;72529;51.786;4.662;2023-12-20T15:12:39;10.23;80.47
82788;DHT22;72529;51.786;4.662;2023-12-20T15:15:05;10.23;80.71
82788;DHT22;72529;51.786;4.662;2023-12-20T15:17:31;10.25;80.88
82788;DHT22;72529;51.786;4.662;2023-12-20T15:19:56;10.26;80.80
82788;DHT22;72529;51.786;4.662;2023-12-20T15:22:22;10.22;80.80
82788;DHT22;72529;51.786;4.662;2023-12-20T15:24:47;10.13;81.07
82788;DHT22;72529;51.786;4.662;2023-12-20T15:27:13;10.17;81.21
82788;DHT22;72529;51.786;4.662;2023-12-20T15:29:38;10.17;81.58
82788;DHT22;72529;51.786;4.662;2023-12-20T15:32:04;10.13;81.51
82788;DHT22;72529;51.786;4.662;2023-12-20T15:34:30;10.10;81.93